Time;durP1;ratioP1;P1;durP2;ratioP2;P2;SDS_P1;SDS_P2;PMS_P1;PMS_P2;Temp;Humidity;BMP_temperature;BMP_pressure;BME280_temperature;BME280_humidity;BME280_pressure;Samples;Min_cycle;Max_cycle;Signal;HPM_P1;HPM_P2
2022/06/21 00:00:23;;;;;;;2.50;2.10;;;14.60;99.90;;;;;;5015634;28;20278;-73
2022/06/21 00:02:54;;;;;;;4.50;1.90;;;14.50;99.90;;;;;;5015761;28;20227;-72
2022/06/21 00:05:29;;;;;;;2.30;1.60;;;14.60;99.90;;;;;;5015674;28;20646;-73
2022/06/21 00:07:56;;;;;;;3.03;1.80;;;14.60;99.90;;;;;;5015846;28;20527;-75
2022/06/21 00:10:23;;;;;;;2.60;1.73;;;14.50;99.90;;;;;;5015549;28;20624;-73
2022/06/21 00:12:48;;;;;;;4.90;1.90;;;14.50;99.90;;;;;;5015389;28;20185;-74
2022/06/21 00:15:14;;;;;;;4.83;1.80;;;14.60;99.90;;;;;;5014441;28;20273;-75
2022/06/21 00:17:47;;;;;;;10.70;2.40;;;14.50;99.90;;;;;;5015743;28;20221;-74
2022/06/21 00:20:20;;;;;;;2.60;2.00;;;14.50;99.90;;;;;;5015523;28;20201;-73
2022/06/21 00:22:48;;;;;;;4.13;1.90;;;14.50;99.90;;;;;;5015603;28;20665;-74
2022/06/21 00:25:25;;;;;;;3.03;2.00;;;14.50;99.90;;;;;;5015390;28;20193;-74
2022/06/21 00:27:54;;;;;;;2.27;1.73;;;14.40;99.90;;;;;;5016816;28;20232;-74
2022/06/21 00:30:21;;;;;;;3.97;2.20;;;14.50;99.90;;;;;;5019357;28;20178;-75
2022/06/21 00:32:49;;;;;;;4.20;2.10;;;14.40;99.90;;;;;;5019936;28;20193;-73
2022/06/21 00:35:18;;;;;;;2.27;2.00;;;14.40;99.90;;;;;;5017541;28;20185;-73
2022/06/21 00:37:45;;;;;;;3.23;1.80;;;14.30;99.90;;;;;;5016837;28;20203;-73
2022/06/21 00:40:19;;;;;;;8.10;1.70;;;14.30;99.90;;;;;;5016327;28;20189;-75
2022/06/21 00:42:48;;;;;;;5.20;2.00;;;14.30;99.90;;;;;;5015380;28;20221;-73
2022/06/21 00:45:31;;;;;;;10.70;2.20;;;14.30;99.90;;;;;;5015354;28;20535;-74
2022/06/21 00:48:01;;;;;;;7.03;1.90;;;14.10;99.90;;;;;;5016056;28;20568;-73
2022/06/21 00:50:34;;;;;;;1.90;1.70;;;14.10;99.90;;;;;;5018540;28;20283;-73
2022/06/21 00:53:14;;;;;;;3.80;2.00;;;14.10;99.90;;;;;;5021994;28;20181;-73
2022/06/21 00:55:42;;;;;;;4.73;2.07;;;14.20;99.90;;;;;;5021880;28;20223;-74
2022/06/21 00:58:11;;;;;;;7.10;2.00;;;14.20;99.90;;;;;;5022020;28;20189;-73
2022/06/21 01:01:01;;;;;;;1.93;1.73;;;14.10;99.90;;;;;;5023016;28;20253;-73
2022/06/21 01:03:37;;;;;;;4.70;2.00;;;14.10;99.90;;;;;;5021611;28;20232;-73
2022/06/21 01:06:36;;;;;;;2.53;2.27;;;14.00;99.90;;;;;;5018767;28;20184;-73
2022/06/21 01:09:08;;;;;;;3.30;2.10;;;14.00;99.90;;;;;;5014437;28;20212;-73
2022/06/21 01:11:46;;;;;;;7.47;2.13;;;13.90;99.90;;;;;;5014416;28;20188;-72
2022/06/21 01:14:13;;;;;;;4.23;2.10;;;13.90;99.90;;;;;;5014230;28;20505;-75
2022/06/21 01:16:39;;;;;;;3.53;1.90;;;13.80;99.90;;;;;;5013893;28;20250;-74
2022/06/21 01:19:32;;;;;;;2.27;1.80;;;13.90;99.90;;;;;;5013605;28;20276;-74
2022/06/21 01:22:06;;;;;;;8.23;2.37;;;13.90;99.90;;;;;;5014232;28;20565;-74
2022/06/21 01:25:09;;;;;;;7.00;2.63;;;13.80;99.90;;;;;;5014031;28;20185;-72
2022/06/21 01:27:35;;;;;;;3.57;2.20;;;13.80;99.90;;;;;;5001568;28;20229;-73
2022/06/21 01:30:02;;;;;;;4.50;2.20;;;13.80;99.90;;;;;;5014729;28;20186;-73
2022/06/21 01:32:28;;;;;;;4.27;2.20;;;13.70;99.90;;;;;;5014087;28;20197;-73
2022/06/21 01:34:54;;;;;;;1.83;1.70;;;13.60;99.90;;;;;;5014458;28;20185;-73
2022/06/21 01:37:25;;;;;;;4.83;2.33;;;13.70;99.90;;;;;;5014049;28;20263;-75
2022/06/21 01:40:10;;;;;;;2.23;1.70;;;13.80;99.90;;;;;;5014748;28;20191;-74
2022/06/21 01:42:43;;;;;;;5.00;2.57;;;13.60;99.90;;;;;;5013999;28;20220;-75
2022/06/21 01:45:13;;;;;;;4.90;2.30;;;13.70;99.90;;;;;;5013720;28;20532;-74
2022/06/21 01:47:50;;;;;;;4.87;2.20;;;13.70;99.90;;;;;;5014190;28;20181;-74
2022/06/21 01:50:16;;;;;;;3.20;1.60;;;13.50;99.90;;;;;;5013977;28;20195;-73
2022/06/21 01:52:45;;;;;;;4.47;2.40;;;13.60;99.90;;;;;;5014021;28;20189;-73
2022/06/21 01:55:19;;;;;;;3.23;2.03;;;13.50;99.90;;;;;;5014279;28;20187;-74
2022/06/21 01:57:46;;;;;;;4.60;2.03;;;13.50;99.90;;;;;;5014116;28;20189;-74
2022/06/21 02:00:12;;;;;;;5.03;2.23;;;13.70;99.90;;;;;;5014299;28;20192;-73
2022/06/21 02:02:57;;;;;;;13.93;2.90;;;13.50;99.90;;;;;;5013598;28;20300;-74
2022/06/21 02:05:35;;;;;;;6.10;2.70;;;13.50;99.90;;;;;;5013512;28;20643;-74
2022/06/21 02:08:08;;;;;;;2.40;2.20;;;13.50;99.90;;;;;;5014037;28;20185;-73
2022/06/21 02:10:44;;;;;;;3.20;2.43;;;13.50;99.90;;;;;;5013562;28;20185;-73
2022/06/21 02:13:36;;;;;;;6.77;2.70;;;13.40;99.90;;;;;;5013869;28;20279;-73
2022/06/21 02:16:07;;;;;;;5.90;2.90;;;13.40;99.90;;;;;;5009620;28;20650;-74
2022/06/21 02:18:39;;;;;;;2.53;2.20;;;13.40;99.90;;;;;;5013580;28;20594;-73
2022/06/21 02:21:18;;;;;;;4.43;2.73;;;13.50;99.90;;;;;;5013821;28;20329;-74
2022/06/21 02:23:53;;;;;;;7.27;2.60;;;13.40;99.90;;;;;;5014007;28;20308;-71
2022/06/21 02:26:20;;;;;;;2.60;2.20;;;13.40;99.90;;;;;;5013728;28;20268;-74
2022/06/21 02:28:46;;;;;;;7.77;2.87;;;13.40;99.90;;;;;;5013447;28;20237;-74
2022/06/21 02:31:12;;;;;;;4.53;2.27;;;13.30;99.90;;;;;;5013307;28;20512;-74
2022/06/21 02:33:40;;;;;;;4.20;2.50;;;13.40;99.90;;;;;;5013787;28;20272;-73
2022/06/21 02:36:11;;;;;;;4.27;2.50;;;13.40;99.90;;;;;;5013338;28;20235;-73
2022/06/21 02:38:41;;;;;;;5.90;2.40;;;13.30;99.90;;;;;;5015036;28;20192;-73
2022/06/21 02:41:12;;;;;;;4.20;2.23;;;13.30;99.90;;;;;;5017461;28;20185;-72
2022/06/21 02:43:44;;;;;;;3.47;2.43;;;13.40;99.90;;;;;;5017348;28;20315;-73
2022/06/21 02:46:15;;;;;;;5.77;2.37;;;13.30;99.90;;;;;;5017076;28;20286;-73
2022/06/21 02:48:49;;;;;;;4.27;2.30;;;13.30;99.90;;;;;;5017501;28;20251;-74
2022/06/21 02:51:24;;;;;;;3.73;2.50;;;13.30;99.90;;;;;;5017220;28;20185;-73
2022/06/21 02:54:25;;;;;;;5.30;2.47;;;13.30;99.90;;;;;;5017417;28;20188;-73
2022/06/21 02:57:01;;;;;;;4.50;2.00;;;13.30;99.90;;;;;;5017874;28;20189;-73
2022/06/21 02:59:28;;;;;;;4.60;2.27;;;13.30;99.90;;;;;;5021262;28;20755;-73
2022/06/21 03:02:00;;;;;;;2.67;2.47;;;13.30;99.90;;;;;;5024209;28;20251;-73
2022/06/21 03:04:36;;;;;;;5.97;2.47;;;13.30;99.90;;;;;;5023528;28;20193;-74
2022/06/21 03:07:03;;;;;;;6.20;2.87;;;13.20;99.90;;;;;;5028514;28;20185;-74
2022/06/21 03:09:30;;;;;;;9.13;2.37;;;13.20;99.90;;;;;;5018696;28;20219;-72
2022/06/21 03:12:01;;;;;;;5.57;2.50;;;13.20;99.90;;;;;;5017454;28;20189;-74
2022/06/21 03:14:28;;;;;;;11.30;2.50;;;13.10;99.90;;;;;;5017243;28;20181;-75
2022/06/21 03:16:56;;;;;;;2.50;2.30;;;13.20;99.90;;;;;;5016812;28;20185;-72
2022/06/21 03:19:30;;;;;;;3.40;2.50;;;13.20;99.90;;;;;;5016894;28;20196;-73
2022/06/21 03:21:57;;;;;;;5.63;2.23;;;13.10;99.90;;;;;;5017303;28;20246;-73
2022/06/21 03:24:26;;;;;;;4.43;3.10;;;13.20;99.90;;;;;;5016820;28;20648;-73
2022/06/21 03:27:02;;;;;;;4.73;2.50;;;13.30;99.90;;;;;;5016833;28;20208;-74
2022/06/21 03:29:29;;;;;;;4.03;2.23;;;13.30;99.90;;;;;;5019284;28;20621;-74
2022/06/21 03:31:57;;;;;;;3.60;2.37;;;13.20;99.90;;;;;;5021194;28;20243;-74
2022/06/21 03:34:24;;;;;;;4.33;2.30;;;13.30;99.90;;;;;;5024248;28;20304;-75
2022/06/21 03:36:51;;;;;;;3.37;2.40;;;13.30;99.90;;;;;;5022060;28;20186;-73
2022/06/21 03:39:20;;;;;;;6.20;2.37;;;13.20;99.90;;;;;;5019493;28;20194;-73
2022/06/21 03:41:48;;;;;;;5.53;2.30;;;13.30;99.90;;;;;;5016765;28;20279;-72
2022/06/21 03:44:17;;;;;;;4.97;2.30;;;13.50;99.90;;;;;;5016485;28;20189;-73
2022/06/21 03:46:48;;;;;;;3.77;2.60;;;13.60;99.90;;;;;;5016247;28;20244;-74
2022/06/21 03:49:38;;;;;;;2.70;2.43;;;13.40;99.90;;;;;;5016917;28;20189;-74
2022/06/21 03:52:09;;;;;;;3.60;2.63;;;13.40;99.90;;;;;;5017008;28;20199;-74
2022/06/21 03:54:45;;;;;;;6.33;2.70;;;13.40;99.90;;;;;;5016350;28;20196;-74
2022/06/21 03:57:23;;;;;;;8.40;3.07;;;13.30;99.90;;;;;;5016551;28;20267;-73
2022/06/21 04:00:03;;;;;;;4.10;2.30;;;13.40;99.90;;;;;;5015613;28;20604;-74
2022/06/21 04:02:39;;;;;;;4.37;2.30;;;13.40;99.90;;;;;;5015808;28;20233;-73
2022/06/21 04:05:18;;;;;;;5.17;2.27;;;13.50;99.90;;;;;;5015686;28;20200;-73
2022/06/21 04:07:52;;;;;;;4.50;2.30;;;13.50;99.90;;;;;;5015560;28;20201;-73
2022/06/21 04:10:24;;;;;;;2.13;1.93;;;13.40;99.90;;;;;;5016147;28;20189;-73
2022/06/21 04:12:54;;;;;;;2.40;2.20;;;13.50;99.90;;;;;;5015510;28;20599;-73
2022/06/21 04:15:34;;;;;;;4.67;2.20;;;13.40;99.90;;;;;;5015626;28;20215;-73
2022/06/21 04:18:12;;;;;;;9.63;2.50;;;13.40;99.90;;;;;;5015123;28;20185;-73
2022/06/21 04:21:07;;;;;;;6.33;2.60;;;13.50;99.90;;;;;;5015133;28;20193;-73
2022/06/21 04:23:41;;;;;;;3.17;2.40;;;13.50;99.90;;;;;;5015138;28;20217;-72
2022/06/21 04:26:09;;;;;;;4.37;1.97;;;13.60;99.90;;;;;;5015185;28;20575;-72
2022/06/21 04:28:38;;;;;;;2.87;2.07;;;13.60;99.90;;;;;;5015335;28;20279;-73
2022/06/21 04:31:16;;;;;;;3.80;2.33;;;13.60;99.90;;;;;;5015197;28;20235;-72
2022/06/21 04:33:54;;;;;;;3.63;1.83;;;13.60;99.90;;;;;;5015627;28;20189;-73
2022/06/21 04:36:26;;;;;;;3.87;2.70;;;13.60;99.90;;;;;;5015347;28;20291;-73
2022/06/21 04:39:05;;;;;;;3.10;2.40;;;13.70;99.90;;;;;;5015200;28;20603;-74
2022/06/21 04:41:53;;;;;;;4.63;2.60;;;13.80;99.90;;;;;;5015200;28;20192;-73
2022/06/21 04:44:19;;;;;;;5.03;2.60;;;13.80;99.90;;;;;;5014691;28;20197;-74
2022/06/21 04:47:01;;;;;;;3.73;2.40;;;13.80;99.90;;;;;;5015142;28;20192;-73
2022/06/21 04:49:53;;;;;;;5.50;2.43;;;13.90;99.90;;;;;;5015525;28;20226;-74
2022/06/21 04:52:36;;;;;;;7.40;2.53;;;13.90;99.90;;;;;;5015034;28;20192;-74
2022/06/21 04:55:03;;;;;;;4.33;2.20;;;13.90;99.90;;;;;;5014726;28;20585;-73
2022/06/21 04:57:31;;;;;;;3.00;2.10;;;14.00;99.90;;;;;;5014919;28;20220;-75
2022/06/21 05:00:04;;;;;;;9.30;3.00;;;13.90;99.90;;;;;;5015216;28;20220;-72
2022/06/21 05:02:52;;;;;;;7.47;2.60;;;14.10;99.90;;;;;;4997122;28;20702;-74
2022/06/21 05:05:31;;;;;;;5.60;2.40;;;14.20;99.90;;;;;;5019667;28;20189;-75
2022/06/21 05:08:14;;;;;;;5.10;2.27;;;14.30;99.90;;;;;;5027140;28;20242;-72
2022/06/21 05:10:44;;;;;;;3.27;2.20;;;14.20;99.90;;;;;;5024117;28;20244;-74
2022/06/21 05:13:24;;;;;;;4.00;2.40;;;14.10;99.90;;;;;;5030522;28;20185;-71
2022/06/21 05:15:51;;;;;;;5.90;2.30;;;14.10;99.90;;;;;;5020085;28;20185;-73
2022/06/21 05:18:30;;;;;;;5.27;2.10;;;14.30;99.90;;;;;;5014487;28;20276;-74
2022/06/21 05:21:03;;;;;;;4.03;2.40;;;14.20;99.90;;;;;;5014694;28;20189;-73
2022/06/21 05:23:29;;;;;;;4.50;2.33;;;14.30;99.90;;;;;;5014659;28;20726;-73
2022/06/21 05:25:59;;;;;;;4.03;2.37;;;14.20;99.90;;;;;;5014900;28;20593;-74
2022/06/21 05:28:45;;;;;;;6.33;2.87;;;14.20;99.90;;;;;;5014231;28;20239;-72
2022/06/21 05:31:27;;;;;;;7.60;2.40;;;14.30;99.90;;;;;;5014281;28;20178;-73
2022/06/21 05:34:09;;;;;;;7.20;2.43;;;14.30;99.90;;;;;;5014399;28;20185;-73
2022/06/21 05:36:40;;;;;;;6.40;2.20;;;14.40;99.90;;;;;;5014541;28;20577;-74
2022/06/21 05:39:22;;;;;;;9.43;2.17;;;14.50;99.90;;;;;;5014525;28;20187;-73
2022/06/21 05:41:50;;;;;;;3.70;2.00;;;14.40;99.90;;;;;;5014300;28;20185;-71
2022/06/21 05:44:28;;;;;;;5.20;2.00;;;14.50;99.90;;;;;;5013841;28;20710;-74
2022/06/21 05:46:58;;;;;;;2.93;1.90;;;14.60;99.90;;;;;;5013867;28;20625;-74
2022/06/21 05:49:29;;;;;;;5.50;1.90;;;14.90;99.90;;;;;;5014301;28;20243;-72
2022/06/21 05:51:58;;;;;;;3.47;1.80;;;15.00;99.90;;;;;;5014423;28;20177;-72
2022/06/21 05:54:38;;;;;;;2.77;2.10;;;15.20;99.90;;;;;;5013668;28;20708;-73
2022/06/21 05:57:07;;;;;;;6.03;2.43;;;15.20;99.90;;;;;;4996471;28;20283;-73
2022/06/21 05:59:32;;;;;;;6.77;1.97;;;15.10;99.90;;;;;;5013449;28;20644;-73
2022/06/21 06:02:05;;;;;;;2.43;2.00;;;15.00;99.90;;;;;;5013842;28;20181;-73
2022/06/21 06:04:39;;;;;;;3.13;1.97;;;15.00;99.90;;;;;;5013878;28;20177;-73
2022/06/21 06:07:08;;;;;;;3.37;2.20;;;14.80;99.90;;;;;;5014033;28;20226;-73
2022/06/21 06:09:40;;;;;;;4.60;2.10;;;14.90;99.90;;;;;;5013537;28;20502;-72
2022/06/21 06:12:27;;;;;;;4.97;2.07;;;14.90;99.90;;;;;;5014193;28;20180;-72
2022/06/21 06:15:03;;;;;;;3.43;2.00;;;15.00;99.90;;;;;;5016623;28;20628;-73
2022/06/21 06:17:37;;;;;;;2.53;1.77;;;15.10;99.90;;;;;;5017968;28;20177;-74
2022/06/21 06:20:24;;;;;;;4.30;2.40;;;15.10;99.90;;;;;;5017704;28;20640;-73
2022/06/21 06:23:14;;;;;;;6.90;2.27;;;15.20;99.90;;;;;;5017971;28;20314;-72
2022/06/21 06:25:48;;;;;;;4.43;1.80;;;15.20;99.90;;;;;;4996610;28;20189;-73
2022/06/21 06:28:38;;;;;;;2.77;2.10;;;15.30;99.90;;;;;;5017617;28;20571;-71
2022/06/21 06:31:21;;;;;;;5.07;2.03;;;15.40;99.90;;;;;;5018033;28;20181;-72
2022/06/21 06:33:52;;;;;;;2.77;2.13;;;15.20;99.90;;;;;;5018580;28;20181;-71
2022/06/21 06:36:21;;;;;;;3.63;2.10;;;15.10;99.90;;;;;;5020005;28;20181;-72
2022/06/21 06:38:47;;;;;;;8.90;2.33;;;15.10;99.90;;;;;;5007434;28;20184;-72
2022/06/21 06:41:34;;;;;;;6.73;2.40;;;15.20;99.90;;;;;;5019623;28;20174;-75
2022/06/21 06:44:03;;;;;;;5.53;2.60;;;15.20;99.90;;;;;;5018147;28;20240;-73
2022/06/21 06:46:37;;;;;;;3.13;2.13;;;15.20;99.90;;;;;;5020463;28;20177;-75
2022/06/21 06:49:21;;;;;;;5.73;2.33;;;15.40;99.90;;;;;;5024596;28;20199;-74
2022/06/21 06:52:15;;;;;;;6.93;1.90;;;15.80;99.90;;;;;;5024859;28;20177;-72
2022/06/21 06:55:06;;;;;;;3.93;2.03;;;16.10;99.90;;;;;;5026053;28;20198;-73
2022/06/21 06:57:34;;;;;;;3.13;2.10;;;16.00;99.90;;;;;;5021730;28;20185;-73
2022/06/21 07:00:01;;;;;;;2.83;2.10;;;15.80;99.90;;;;;;5023768;28;20181;-71
2022/06/21 07:02:36;;;;;;;3.33;2.20;;;15.90;99.90;;;;;;5024692;28;20216;-72
2022/06/21 07:05:37;;;;;;;2.40;1.93;;;16.00;99.90;;;;;;5018790;28;20542;-72
2022/06/21 07:08:34;;;;;;;4.73;2.30;;;16.00;99.90;;;;;;5014402;28;20628;-74
2022/06/21 07:11:04;;;;;;;2.13;1.90;;;16.20;99.90;;;;;;5011463;28;20211;-73
2022/06/21 07:13:31;;;;;;;2.97;2.03;;;16.60;99.90;;;;;;5017109;28;20189;-73
2022/06/21 07:16:05;;;;;;;2.40;1.73;;;16.60;99.90;;;;;;5017544;28;20185;-74
2022/06/21 07:18:39;;;;;;;2.63;1.90;;;16.80;99.90;;;;;;5024459;28;20186;-74
2022/06/21 07:21:05;;;;;;;2.27;1.67;;;16.80;99.90;;;;;;5024890;28;20181;-74
2022/06/21 07:23:31;;;;;;;2.53;1.67;;;16.90;99.90;;;;;;5018815;28;20225;-71
2022/06/21 07:26:13;;;;;;;5.80;1.90;;;16.50;99.90;;;;;;5019121;28;20178;-72
2022/06/21 07:28:53;;;;;;;5.57;1.93;;;16.40;99.90;;;;;;5017573;28;20233;-73
2022/06/21 07:31:28;;;;;;;4.20;1.70;;;16.50;99.90;;;;;;5016143;28;20181;-73
2022/06/21 07:34:07;;;;;;;3.07;1.60;;;16.40;99.90;;;;;;5016093;28;20188;-69
2022/06/21 07:36:50;;;;;;;2.93;2.20;;;16.30;99.90;;;;;;5017271;28;20264;-71
2022/06/21 07:39:33;;;;;;;4.80;1.80;;;16.60;99.90;;;;;;5015580;28;20537;-73
2022/06/21 07:42:20;;;;;;;4.50;2.20;;;16.90;99.90;;;;;;5016238;28;20173;-73
2022/06/21 07:44:57;;;;;;;1.97;1.70;;;17.30;99.90;;;;;;5015814;28;20189;-73
2022/06/21 07:47:44;;;;;;;2.50;1.83;;;17.50;99.90;;;;;;5015750;28;20263;-73
2022/06/21 07:50:17;;;;;;;1.93;1.73;;;17.60;99.90;;;;;;5015736;28;20192;-72
2022/06/21 07:52:55;;;;;;;3.97;1.80;;;17.40;99.90;;;;;;5015860;28;20259;-71
2022/06/21 07:55:35;;;;;;;6.23;1.90;;;16.90;99.90;;;;;;5015596;28;20186;-73
2022/06/21 07:58:11;;;;;;;2.67;1.90;;;16.90;99.90;;;;;;5015484;28;20268;-72
2022/06/21 08:09:18;;;;;;;5.50;1.77;;;17.10;99.90;;;;;;5015887;28;20257;-73
2022/06/21 08:11:46;;;;;;;3.10;1.60;;;17.30;99.90;;;;;;5015592;28;20189;-73
2022/06/21 08:14:13;;;;;;;6.53;1.87;;;17.10;99.90;;;;;;5015733;28;20185;-71
2022/06/21 08:16:56;;;;;;;2.10;1.50;;;17.10;99.90;;;;;;5015451;28;20265;-71
2022/06/21 08:19:53;;;;;;;2.73;1.53;;;17.40;99.90;;;;;;5015022;28;20173;-72
2022/06/21 08:22:47;;;;;;;3.50;1.50;;;17.50;99.90;;;;;;5015233;28;20280;-72
2022/06/21 08:25:33;;;;;;;2.00;1.80;;;17.50;99.90;;;;;;4994344;28;20189;-73
2022/06/21 08:28:05;;;;;;;3.00;1.80;;;17.40;99.90;;;;;;5015080;28;20256;-71
2022/06/21 08:30:48;;;;;;;3.22;1.60;;;17.70;99.90;;;;;;5015568;28;20569;-73
2022/06/21 08:33:25;;;;;;;7.30;2.13;;;17.80;99.90;;;;;;5017549;28;20185;-72
2022/06/21 08:35:59;;;;;;;1.92;1.70;;;17.70;99.90;;;;;;5017605;28;20508;-72
2022/06/21 08:38:30;;;;;;;8.02;1.73;;;17.80;99.90;;;;;;5021062;28;20243;-72
2022/06/21 08:41:53;;;;;;;2.53;1.90;;;17.80;99.90;;;;;;5018145;28;20181;-73
2022/06/21 08:45:40;;;;;;;4.40;2.00;;;18.20;99.90;;;;;;5018683;28;20221;-74
2022/06/21 08:48:08;;;;;;;3.08;2.05;;;18.30;99.90;;;;;;5016293;28;20692;-73
2022/06/21 08:51:04;;;;;;;5.85;1.70;;;17.80;99.90;;;;;;5019529;28;20208;-72
2022/06/21 08:53:48;;;;;;;3.78;1.80;;;17.80;99.90;;;;;;5022164;28;20183;-73
2022/06/21 08:56:23;;;;;;;4.10;1.80;;;18.00;99.90;;;;;;5021054;28;20177;-72
2022/06/21 08:59:20;;;;;;;1.83;1.52;;;18.40;99.90;;;;;;5020115;28;20257;-73
2022/06/21 09:02:29;;;;;;;1.75;1.38;;;18.60;99.90;;;;;;5024802;28;20213;-72
2022/06/21 09:05:13;;;;;;;5.20;1.70;;;18.90;99.90;;;;;;5026947;28;20255;-73
2022/06/21 09:07:54;;;;;;;2.22;1.63;;;18.40;99.90;;;;;;5021016;28;20613;-75
2022/06/21 09:10:57;;;;;;;4.22;2.08;;;18.70;99.90;;;;;;5015323;28;20183;-74
2022/06/21 09:13:41;;;;;;;1.98;1.70;;;19.00;99.90;;;;;;5014851;28;20181;-72
2022/06/21 09:16:22;;;;;;;1.92;1.70;;;19.30;99.90;;;;;;5014802;28;20185;-73
2022/06/21 09:19:09;;;;;;;6.30;2.08;;;19.50;99.90;;;;;;5015629;28;20177;-71
2022/06/21 09:22:08;;;;;;;5.90;1.90;;;19.00;99.90;;;;;;5015425;28;20199;-73
2022/06/21 09:24:58;;;;;;;5.60;1.60;;;19.10;99.90;;;;;;5014906;28;20192;-72
2022/06/21 09:27:33;;;;;;;4.93;1.67;;;19.20;99.90;;;;;;5014399;28;20182;-73
2022/06/21 09:30:15;;;;;;;2.90;1.55;;;19.80;99.90;;;;;;5015299;28;20199;-72
2022/06/21 09:33:15;;;;;;;2.83;1.80;;;19.80;99.90;;;;;;5014925;28;20252;-72
2022/06/21 09:36:32;;;;;;;5.15;1.75;;;19.30;99.90;;;;;;5014609;28;20181;-71
2022/06/21 09:39:12;;;;;;;4.13;1.90;;;19.80;99.90;;;;;;4991987;28;20185;-72
2022/06/21 09:42:26;;;;;;;2.88;1.85;;;19.60;99.90;;;;;;5015092;28;20189;-72
2022/06/21 09:45:09;;;;;;;4.05;1.63;;;19.10;99.90;;;;;;5012185;28;20201;-71
2022/06/21 09:47:59;;;;;;;2.15;1.55;;;19.40;99.90;;;;;;5014888;28;20234;-72
2022/06/21 09:50:38;;;;;;;4.20;2.00;;;19.60;99.90;;;;;;5014446;28;20209;-74
2022/06/21 09:53:12;;;;;;;4.05;1.80;;;20.50;99.90;;;;;;5014178;28;20200;-74
2022/06/21 09:55:53;;;;;;;1.58;1.38;;;21.00;99.20;;;;;;5013787;28;20196;-72
2022/06/21 09:58:27;;;;;;;2.40;1.50;;;20.30;98.60;;;;;;5014124;28;20236;-71
2022/06/21 10:01:14;;;;;;;3.33;1.70;;;20.00;99.40;;;;;;5013763;28;20271;-74
2022/06/21 10:03:57;;;;;;;2.50;1.85;;;19.80;99.90;;;;;;5014373;28;20643;-73
2022/06/21 10:06:23;;;;;;;4.88;1.60;;;20.20;99.00;;;;;;5013903;28;20189;-72
2022/06/21 10:09:28;;;;;;;3.20;1.60;;;20.30;97.20;;;;;;5013901;28;20178;-71
2022/06/21 10:12:19;;;;;;;3.63;2.72;;;20.10;98.00;;;;;;4996461;28;20177;-72
2022/06/21 10:15:07;;;;;;;3.22;1.73;;;20.50;97.40;;;;;;5013981;28;20185;-74
2022/06/21 10:17:32;;;;;;;3.65;1.60;;;20.00;97.40;;;;;;5014177;28;20209;-73
2022/06/21 10:20:13;;;;;;;2.08;1.60;;;19.90;99.00;;;;;;5013933;28;20185;-72
2022/06/21 10:23:03;;;;;;;4.78;1.90;;;20.20;97.10;;;;;;5013939;28;20275;-71
2022/06/21 10:25:51;;;;;;;2.72;1.58;;;20.50;95.90;;;;;;5013918;28;20206;-73
2022/06/21 10:28:38;;;;;;;1.75;1.63;;;20.90;96.50;;;;;;5014660;28;20322;-69
2022/06/21 10:31:03;;;;;;;2.47;1.63;;;20.50;97.10;;;;;;5014882;28;20609;-72
2022/06/21 10:34:06;;;;;;;1.98;1.58;;;19.90;97.20;;;;;;5031166;28;20278;-73
2022/06/21 10:37:01;;;;;;;3.03;1.65;;;19.70;99.30;;;;;;5038762;28;20268;-72
2022/06/21 10:39:42;;;;;;;4.05;1.38;;;20.20;96.80;;;;;;5042207;28;20322;-72
2022/06/21 10:42:47;;;;;;;3.50;1.40;;;20.60;94.10;;;;;;5044468;28;20234;-69
2022/06/21 10:45:24;;;;;;;4.38;1.60;;;20.70;91.80;;;;;;5047585;28;20184;-74
2022/06/21 10:48:08;;;;;;;3.60;1.67;;;21.20;91.40;;;;;;5046410;28;20180;-73
2022/06/21 10:50:52;;;;;;;3.75;1.50;;;21.00;91.00;;;;;;5043718;28;20181;-71
2022/06/21 10:53:28;;;;;;;2.13;1.73;;;20.50;93.80;;;;;;5033190;28;20177;-72
2022/06/21 10:59:26;;;;;;;1.38;1.27;;;21.50;91.00;;;;;;5033211;28;20231;-73
2022/06/21 11:02:02;;;;;;;4.72;2.30;;;21.90;89.20;;;;;;5037217;28;20181;-72
2022/06/21 11:04:44;;;;;;;3.17;1.75;;;21.20;91.70;;;;;;5037173;28;20293;-70
2022/06/21 11:07:39;;;;;;;3.22;1.80;;;21.10;92.80;;;;;;5038171;28;20192;-72
2022/06/21 11:10:23;;;;;;;5.43;1.70;;;20.70;94.30;;;;;;5004372;28;20181;-73
2022/06/21 11:12:53;;;;;;;8.00;2.00;;;21.30;93.90;;;;;;5044750;28;20176;-72
2022/06/21 11:15:34;;;;;;;3.42;1.58;;;21.40;92.00;;;;;;5044212;28;20200;-73
2022/06/21 11:18:16;;;;;;;4.78;1.67;;;22.40;92.90;;;;;;5044344;28;20183;-72
2022/06/21 11:21:15;;;;;;;1.95;1.50;;;21.90;88.20;;;;;;5044058;28;20177;-71
2022/06/21 11:24:11;;;;;;;3.80;1.50;;;21.20;85.70;;;;;;5040926;28;20697;-71
2022/06/21 11:27:08;;;;;;;2.33;1.50;;;21.60;85.60;;;;;;5041116;28;20219;-72
2022/06/21 11:30:11;;;;;;;4.47;2.30;;;21.60;87.80;;;;;;5040030;28;20232;-72
2022/06/21 11:32:39;;;;;;;3.28;1.60;;;21.70;88.60;;;;;;5039866;28;20184;-71
2022/06/21 11:35:10;;;;;;;1.60;1.50;;;22.00;87.20;;;;;;5051243;28;20204;-70
2022/06/21 11:38:19;;;;;;;3.95;1.60;;;22.20;85.40;;;;;;5050339;28;20173;-70
2022/06/21 11:42:03;;;;;;;2.67;1.42;;;22.30;81.80;;;;;;5016055;28;20216;-70
2022/06/21 11:44:18;;;;;;;5.25;1.70;;;21.90;80.40;;;;;;5036486;28;20664;-71
2022/06/21 11:46:59;;;;;;;4.05;1.80;;;22.00;80.80;;;;;;5037239;28;20180;-72
2022/06/21 11:49:48;;;;;;;1.75;1.50;;;21.80;81.20;;;;;;5036571;28;20688;-72
2022/06/21 11:52:47;;;;;;;2.92;1.60;;;21.70;81.50;;;;;;5036212;28;20181;-73
2022/06/21 11:55:24;;;;;;;2.75;1.80;;;21.90;81.00;;;;;;5036396;28;20183;-74
2022/06/21 11:57:58;;;;;;;2.65;1.50;;;22.20;80.20;;;;;;5036520;28;20176;-71
2022/06/21 12:00:42;;;;;;;2.70;1.40;;;22.50;79.50;;;;;;5037008;28;20204;-72
2022/06/21 12:03:20;;;;;;;11.57;1.77;;;22.40;80.20;;;;;;5035914;28;20515;-71
2022/06/21 12:05:53;;;;;;;2.03;1.52;;;22.80;79.00;;;;;;5036534;28;20191;-74
2022/06/21 12:08:38;;;;;;;2.90;1.45;;;22.50;75.10;;;;;;5036604;28;20208;-73
2022/06/21 12:11:37;;;;;;;3.45;1.60;;;22.70;77.60;;;;;;5035246;28;20172;-74
2022/06/21 12:14:36;;;;;;;2.83;1.60;;;22.30;74.20;;;;;;5029890;28;20263;-74
2022/06/21 12:17:22;;;;;;;2.05;1.40;;;22.70;75.70;;;;;;5035600;28;20597;-73
2022/06/21 12:19:54;;;;;;;4.25;1.33;;;22.70;72.90;;;;;;5035899;28;20212;-74
2022/06/21 12:23:06;;;;;;;1.30;1.20;;;22.70;72.80;;;;;;5036074;28;20180;-73
2022/06/21 12:25:31;;;;;;;6.20;1.73;;;22.20;75.60;;;;;;4937210;29;20227;-71
2022/06/21 12:27:59;;;;;;;2.35;1.25;;;22.70;74.70;;;;;;5017016;28;20315;-72
2022/06/21 12:30:28;;;;;;;2.72;1.70;;;23.00;72.50;;;;;;5039525;28;20180;-70
2022/06/21 12:33:04;;;;;;;3.38;1.58;;;23.40;72.40;;;;;;5040994;28;20176;-75
2022/06/21 12:35:48;;;;;;;4.70;1.70;;;23.70;72.30;;;;;;5040917;28;20178;-71
2022/06/21 12:38:18;;;;;;;2.05;1.35;;;23.40;70.20;;;;;;5046453;28;20240;-73
2022/06/21 12:41:09;;;;;;;4.85;1.30;;;23.50;69.10;;;;;;5047757;28;20263;-73
2022/06/21 12:44:02;;;;;;;3.72;1.52;;;23.50;70.40;;;;;;5039295;28;20226;-72
2022/06/21 12:47:04;;;;;;;2.13;1.38;;;23.10;69.30;;;;;;5039413;28;20636;-72
2022/06/21 12:50:00;;;;;;;2.15;1.33;;;23.60;69.20;;;;;;5036227;28;20185;-72
2022/06/21 12:52:44;;;;;;;1.75;1.48;;;24.20;68.40;;;;;;5034320;28;20196;-72
2022/06/21 12:55:29;;;;;;;1.92;1.38;;;23.50;66.20;;;;;;5034563;28;20278;-72
2022/06/21 12:58:08;;;;;;;3.25;1.90;;;23.50;65.90;;;;;;5035106;28;20528;-73
2022/06/21 13:00:53;;;;;;;2.53;1.92;;;23.80;67.30;;;;;;5035504;28;20177;-72
2022/06/21 13:03:47;;;;;;;1.58;1.30;;;24.00;65.00;;;;;;5035825;28;20567;-72
2022/06/21 13:06:31;;;;;;;1.65;1.40;;;23.90;65.20;;;;;;5018121;28;20516;-73
2022/06/21 13:09:19;;;;;;;3.58;1.50;;;24.40;65.70;;;;;;5035369;28;20642;-72
2022/06/21 13:12:04;;;;;;;2.13;1.70;;;24.40;64.60;;;;;;5035655;28;20181;-73
2022/06/21 13:14:45;;;;;;;1.52;1.40;;;24.00;64.00;;;;;;5034097;28;20176;-72
2022/06/21 13:17:35;;;;;;;4.93;1.60;;;24.30;64.40;;;;;;5034696;28;20681;-72
2022/06/21 13:20:29;;;;;;;2.85;1.60;;;24.10;64.10;;;;;;5034749;28;20199;-71
2022/06/21 13:23:22;;;;;;;3.80;1.48;;;24.40;63.30;;;;;;5034424;28;20304;-71
2022/06/21 13:25:57;;;;;;;3.00;1.60;;;24.10;62.10;;;;;;5034847;28;20191;-73
2022/06/21 13:28:51;;;;;;;2.28;1.20;;;24.50;61.70;;;;;;5031891;28;20230;-71
2022/06/21 13:31:26;;;;;;;2.38;1.35;;;24.60;61.50;;;;;;5035631;28;20176;-72
2022/06/21 13:34:18;;;;;;;2.72;1.92;;;24.30;60.50;;;;;;5034779;28;20176;-72
2022/06/21 13:36:47;;;;;;;3.83;2.35;;;24.40;61.00;;;;;;5034520;28;20187;-73
2022/06/21 13:39:56;;;;;;;4.43;1.60;;;24.80;60.80;;;;;;5034525;28;20180;-72
2022/06/21 13:42:38;;;;;;;2.67;1.52;;;24.60;58.80;;;;;;5034464;28;20215;-73
2022/06/21 13:45:10;;;;;;;3.67;1.95;;;24.80;58.90;;;;;;5035751;28;20204;-72
2022/06/21 13:48:20;;;;;;;2.17;1.70;;;24.80;58.90;;;;;;5033901;28;20246;-70
2022/06/21 13:51:15;;;;;;;2.30;1.52;;;25.00;59.30;;;;;;5029731;28;20208;-72
2022/06/21 13:53:45;;;;;;;4.13;1.50;;;24.60;58.50;;;;;;5020967;28;20200;-71
2022/06/21 13:56:27;;;;;;;1.98;1.50;;;24.40;58.70;;;;;;5034684;28;20268;-71
2022/06/21 13:59:16;;;;;;;3.50;1.40;;;24.70;59.10;;;;;;5034902;28;20254;-72